Oak Creek, Utah
Current Conditions -  °F | °C
As of 1:35 AM on Sunday 26 Oct 2014 (Local Time) from KPVU Reporting Station
Clear Clear  
Wind Chill: 63°   Ceiling: Unl
Heat Index: 63°   Visibility: 10mi
Dew Point: 39°   Wind: 10mph
Humidity: 42%   Direction: 140°SE
Pressure: 29.97"   Gusts: NA
Location:  39.7497°N, 111.442°W
Report Text: KPVU 260735Z AUTO 14009KT 10SM CLR 17/04 A2997 RMK AO1
Loading
Personal Weather Stations






























Interactive Weather Map
Tropical Storm Tracking
New forecast layout! Learn more

10-Day Weather Forecast

Advertisements
Track Severe Weather on mobile